sensor_id;sensor_type;location;lat;lon;timestamp;temperature;humidity
11142;DHT22;5625;50.122;19.864;2022-09-03T00:02:14;14.60;1.00
11142;DHT22;5625;50.122;19.864;2022-09-03T00:04:52;14.60;1.00
11142;DHT22;5625;50.122;19.864;2022-09-03T00:07:29;14.60;1.00
11142;DHT22;5625;50.122;19.864;2022-09-03T00:10:06;14.60;1.00
11142;DHT22;5625;50.122;19.864;2022-09-03T00:12:42;14.70;1.00
11142;DHT22;5625;50.122;19.864;2022-09-03T00:15:13;14.70;1.00
11142;DHT22;5625;50.122;19.864;2022-09-03T00:17:45;14.70;1.00
11142;DHT22;5625;50.122;19.864;2022-09-03T00:20:17;14.70;1.00
11142;DHT22;5625;50.122;19.864;2022-09-03T00:22:48;14.70;1.00
11142;DHT22;5625;50.122;19.864;2022-09-03T00:25:24;14.70;3.00
11142;DHT22;5625;50.122;19.864;2022-09-03T00:27:56;14.60;6.10
11142;DHT22;5625;50.122;19.864;2022-09-03T00:30:25;14.60;13.30
11142;DHT22;5625;50.122;19.864;2022-09-03T00:32:57;14.60;19.50
11142;DHT22;5625;50.122;19.864;2022-09-03T00:35:30;14.60;11.60
11142;DHT22;5625;50.122;19.864;2022-09-03T00:37:59;14.60;17.30
11142;DHT22;5625;50.122;19.864;2022-09-03T00:40:53;14.60;19.60
11142;DHT22;5625;50.122;19.864;2022-09-03T00:43:29;14.60;18.40
11142;DHT22;5625;50.122;19.864;2022-09-03T00:46:07;14.60;20.70
11142;DHT22;5625;50.122;19.864;2022-09-03T00:48:50;14.50;28.60
11142;DHT22;5625;50.122;19.864;2022-09-03T00:51:24;14.50;37.80
11142;DHT22;5625;50.122;19.864;2022-09-03T00:54:01;14.50;52.40
11142;DHT22;5625;50.122;19.864;2022-09-03T00:56:37;14.50;50.80
11142;DHT22;5625;50.122;19.864;2022-09-03T00:59:14;14.50;55.80
11142;DHT22;5625;50.122;19.864;2022-09-03T01:01:51;14.40;60.80
11142;DHT22;5625;50.122;19.864;2022-09-03T01:04:32;14.40;65.10
11142;DHT22;5625;50.122;19.864;2022-09-03T01:07:06;14.40;76.70
11142;DHT22;5625;50.122;19.864;2022-09-03T01:09:46;14.30;77.50
11142;DHT22;5625;50.122;19.864;2022-09-03T01:12:28;14.30;82.50
11142;DHT22;5625;50.122;19.864;2022-09-03T01:15:09;14.30;92.60
11142;DHT22;5625;50.122;19.864;2022-09-03T01:17:48;14.30;99.90
11142;DHT22;5625;50.122;19.864;2022-09-03T01:20:40;14.20;99.90
11142;DHT22;5625;50.122;19.864;2022-09-03T01:23:37;14.20;99.90
11142;DHT22;5625;50.122;19.864;2022-09-03T01:26:38;14.20;99.90
11142;DHT22;5625;50.122;19.864;2022-09-03T01:29:18;14.10;99.90
11142;DHT22;5625;50.122;19.864;2022-09-03T01:31:55;14.10;99.90
11142;DHT22;5625;50.122;19.864;2022-09-03T01:34:34;14.10;99.90
11142;DHT22;5625;50.122;19.864;2022-09-03T01:37:13;14.10;99.90
11142;DHT22;5625;50.122;19.864;2022-09-03T01:39:53;14.20;99.90
11142;DHT22;5625;50.122;19.864;2022-09-03T01:42:35;14.10;99.90
11142;DHT22;5625;50.122;19.864;2022-09-03T01:45:18;14.20;99.90
11142;DHT22;5625;50.122;19.864;2022-09-03T01:48:08;14.20;99.90
11142;DHT22;5625;50.122;19.864;2022-09-03T01:50:45;14.20;99.90
11142;DHT22;5625;50.122;19.864;2022-09-03T01:53:27;14.30;99.90
11142;DHT22;5625;50.122;19.864;2022-09-03T01:56:15;14.20;99.90
11142;DHT22;5625;50.122;19.864;2022-09-03T01:58:48;14.20;99.90
11142;DHT22;5625;50.122;19.864;2022-09-03T02:01:28;14.20;99.90
11142;DHT22;5625;50.122;19.864;2022-09-03T02:03:58;14.20;99.90
11142;DHT22;5625;50.122;19.864;2022-09-03T02:06:27;14.20;99.90
11142;DHT22;5625;50.122;19.864;2022-09-03T02:08:58;14.30;99.90
11142;DHT22;5625;50.122;19.864;2022-09-03T02:11:27;14.30;99.90
11142;DHT22;5625;50.122;19.864;2022-09-03T02:13:56;14.20;99.90
11142;DHT22;5625;50.122;19.864;2022-09-03T02:16:30;14.30;99.90
11142;DHT22;5625;50.122;19.864;2022-09-03T02:19:02;14.20;99.90
11142;DHT22;5625;50.122;19.864;2022-09-03T02:21:33;14.20;99.90
11142;DHT22;5625;50.122;19.864;2022-09-03T02:24:03;14.20;99.90
11142;DHT22;5625;50.122;19.864;2022-09-03T02:26:32;14.20;99.90
11142;DHT22;5625;50.122;19.864;2022-09-03T02:29:00;14.20;99.90
11142;DHT22;5625;50.122;19.864;2022-09-03T02:31:30;14.20;99.90
11142;DHT22;5625;50.122;19.864;2022-09-03T02:33:58;14.10;99.90
11142;DHT22;5625;50.122;19.864;2022-09-03T02:36:29;14.20;99.90
11142;DHT22;5625;50.122;19.864;2022-09-03T02:38:59;14.10;99.90
11142;DHT22;5625;50.122;19.864;2022-09-03T02:41:29;14.10;99.90
11142;DHT22;5625;50.122;19.864;2022-09-03T02:44:00;14.10;99.90
11142;DHT22;5625;50.122;19.864;2022-09-03T02:46:33;14.10;99.90
11142;DHT22;5625;50.122;19.864;2022-09-03T02:49:02;14.00;99.90
11142;DHT22;5625;50.122;19.864;2022-09-03T02:51:35;14.00;99.90
11142;DHT22;5625;50.122;19.864;2022-09-03T02:54:03;14.00;99.90
11142;DHT22;5625;50.122;19.864;2022-09-03T02:56:31;13.90;99.90
11142;DHT22;5625;50.122;19.864;2022-09-03T02:59:00;13.90;99.90
11142;DHT22;5625;50.122;19.864;2022-09-03T03:01:30;13.90;99.90
11142;DHT22;5625;50.122;19.864;2022-09-03T03:03:59;13.90;99.90
11142;DHT22;5625;50.122;19.864;2022-09-03T03:06:27;13.90;99.90
11142;DHT22;5625;50.122;19.864;2022-09-03T03:08:55;13.80;99.90
11142;DHT22;5625;50.122;19.864;2022-09-03T03:11:23;13.80;99.90
11142;DHT22;5625;50.122;19.864;2022-09-03T03:13:52;13.80;1.00
11142;DHT22;5625;50.122;19.864;2022-09-03T03:16:20;13.70;1.00
11142;DHT22;5625;50.122;19.864;2022-09-03T03:18:49;13.70;1.00
11142;DHT22;5625;50.122;19.864;2022-09-03T03:21:18;13.70;1.00
11142;DHT22;5625;50.122;19.864;2022-09-03T03:23:46;13.70;1.00
11142;DHT22;5625;50.122;19.864;2022-09-03T03:26:16;13.60;1.00
11142;DHT22;5625;50.122;19.864;2022-09-03T03:28:45;13.60;1.00
11142;DHT22;5625;50.122;19.864;2022-09-03T03:31:15;13.60;1.00
11142;DHT22;5625;50.122;19.864;2022-09-03T03:33:48;13.60;1.00
11142;DHT22;5625;50.122;19.864;2022-09-03T03:36:19;13.50;1.00
11142;DHT22;5625;50.122;19.864;2022-09-03T03:38:47;13.50;1.00
11142;DHT22;5625;50.122;19.864;2022-09-03T03:41:17;13.50;1.00
11142;DHT22;5625;50.122;19.864;2022-09-03T03:43:47;13.50;1.00
11142;DHT22;5625;50.122;19.864;2022-09-03T03:46:19;13.40;1.00
11142;DHT22;5625;50.122;19.864;2022-09-03T03:48:48;13.50;1.00
11142;DHT22;5625;50.122;19.864;2022-09-03T03:51:18;13.50;1.00
11142;DHT22;5625;50.122;19.864;2022-09-03T03:53:46;13.50;1.00
11142;DHT22;5625;50.122;19.864;2022-09-03T03:56:14;13.40;1.00
11142;DHT22;5625;50.122;19.864;2022-09-03T03:58:43;13.40;1.00
11142;DHT22;5625;50.122;19.864;2022-09-03T04:01:13;13.40;1.00
11142;DHT22;5625;50.122;19.864;2022-09-03T04:03:42;13.40;1.00
11142;DHT22;5625;50.122;19.864;2022-09-03T04:06:12;13.40;1.00
11142;DHT22;5625;50.122;19.864;2022-09-03T04:08:43;13.40;1.00
11142;DHT22;5625;50.122;19.864;2022-09-03T04:11:14;13.40;1.00
11142;DHT22;5625;50.122;19.864;2022-09-03T04:13:43;13.40;1.00
11142;DHT22;5625;50.122;19.864;2022-09-03T04:16:13;13.40;1.00
11142;DHT22;5625;50.122;19.864;2022-09-03T04:18:42;13.30;1.00
11142;DHT22;5625;50.122;19.864;2022-09-03T04:21:12;13.40;1.00
11142;DHT22;5625;50.122;19.864;2022-09-03T04:23:44;13.40;1.00
11142;DHT22;5625;50.122;19.864;2022-09-03T04:26:14;13.30;1.00
11142;DHT22;5625;50.122;19.864;2022-09-03T04:28:43;13.30;1.00
11142;DHT22;5625;50.122;19.864;2022-09-03T04:31:13;13.30;1.00
11142;DHT22;5625;50.122;19.864;2022-09-03T04:33:42;13.40;1.00
11142;DHT22;5625;50.122;19.864;2022-09-03T04:36:11;13.50;1.00
11142;DHT22;5625;50.122;19.864;2022-09-03T04:38:42;13.70;1.00
11142;DHT22;5625;50.122;19.864;2022-09-03T04:41:13;13.70;1.00
11142;DHT22;5625;50.122;19.864;2022-09-03T04:43:42;13.90;1.00
11142;DHT22;5625;50.122;19.864;2022-09-03T04:46:14;14.00;1.00
11142;DHT22;5625;50.122;19.864;2022-09-03T04:48:46;14.20;1.00
11142;DHT22;5625;50.122;19.864;2022-09-03T04:51:18;14.40;1.00
11142;DHT22;5625;50.122;19.864;2022-09-03T04:53:52;14.70;1.00
11142;DHT22;5625;50.122;19.864;2022-09-03T04:56:23;14.90;1.00
11142;DHT22;5625;50.122;19.864;2022-09-03T04:58:54;15.10;1.00
11142;DHT22;5625;50.122;19.864;2022-09-03T05:01:24;15.30;1.00
11142;DHT22;5625;50.122;19.864;2022-09-03T05:03:52;15.60;1.00
11142;DHT22;5625;50.122;19.864;2022-09-03T05:06:20;15.80;1.00
11142;DHT22;5625;50.122;19.864;2022-09-03T05:08:51;16.10;1.00
11142;DHT22;5625;50.122;19.864;2022-09-03T05:11:20;16.20;99.90
11142;DHT22;5625;50.122;19.864;2022-09-03T05:13:49;16.50;99.90
11142;DHT22;5625;50.122;19.864;2022-09-03T05:16:18;16.60;99.90
11142;DHT22;5625;50.122;19.864;2022-09-03T05:18:47;16.90;99.90
11142;DHT22;5625;50.122;19.864;2022-09-03T05:21:16;17.30;99.90
11142;DHT22;5625;50.122;19.864;2022-09-03T05:23:47;17.60;99.90
11142;DHT22;5625;50.122;19.864;2022-09-03T05:26:20;17.70;99.90
11142;DHT22;5625;50.122;19.864;2022-09-03T05:28:52;17.70;99.90
11142;DHT22;5625;50.122;19.864;2022-09-03T05:31:22;18.00;99.90
11142;DHT22;5625;50.122;19.864;2022-09-03T05:33:56;18.00;99.90
11142;DHT22;5625;50.122;19.864;2022-09-03T05:36:27;18.00;99.90
11142;DHT22;5625;50.122;19.864;2022-09-03T05:38:57;17.80;99.90
11142;DHT22;5625;50.122;19.864;2022-09-03T05:41:27;18.10;99.90
11142;DHT22;5625;50.122;19.864;2022-09-03T05:43:56;18.50;99.90
11142;DHT22;5625;50.122;19.864;2022-09-03T05:46:27;18.80;99.90
11142;DHT22;5625;50.122;19.864;2022-09-03T05:48:58;19.50;99.90
11142;DHT22;5625;50.122;19.864;2022-09-03T05:51:26;19.60;99.90
11142;DHT22;5625;50.122;19.864;2022-09-03T05:53:54;19.20;99.90
11142;DHT22;5625;50.122;19.864;2022-09-03T05:56:24;18.80;99.90
11142;DHT22;5625;50.122;19.864;2022-09-03T05:58:58;18.50;99.90
11142;DHT22;5625;50.122;19.864;2022-09-03T06:01:29;18.10;99.90
11142;DHT22;5625;50.122;19.864;2022-09-03T06:03:59;17.90;99.90
11142;DHT22;5625;50.122;19.864;2022-09-03T06:06:29;17.80;99.90
11142;DHT22;5625;50.122;19.864;2022-09-03T06:08:59;17.70;99.90
11142;DHT22;5625;50.122;19.864;2022-09-03T06:11:28;17.50;99.90
11142;DHT22;5625;50.122;19.864;2022-09-03T06:14:00;17.30;99.90
11142;DHT22;5625;50.122;19.864;2022-09-03T06:16:31;17.20;99.90
11142;DHT22;5625;50.122;19.864;2022-09-03T06:19:00;17.10;1.00
11142;DHT22;5625;50.122;19.864;2022-09-03T06:21:28;17.00;1.00
11142;DHT22;5625;50.122;19.864;2022-09-03T06:23:57;17.00;1.00
11142;DHT22;5625;50.122;19.864;2022-09-03T06:26:26;17.00;1.00
11142;DHT22;5625;50.122;19.864;2022-09-03T06:28:57;17.00;1.00
11142;DHT22;5625;50.122;19.864;2022-09-03T06:31:26;17.00;1.00
11142;DHT22;5625;50.122;19.864;2022-09-03T06:33:57;17.00;1.00
11142;DHT22;5625;50.122;19.864;2022-09-03T06:36:30;16.90;1.00
11142;DHT22;5625;50.122;19.864;2022-09-03T06:38:58;16.90;1.00
11142;DHT22;5625;50.122;19.864;2022-09-03T06:41:28;16.80;1.00
11142;DHT22;5625;50.122;19.864;2022-09-03T06:44:01;16.70;1.00
11142;DHT22;5625;50.122;19.864;2022-09-03T06:46:32;16.90;1.00
11142;DHT22;5625;50.122;19.864;2022-09-03T06:49:01;16.90;1.00
11142;DHT22;5625;50.122;19.864;2022-09-03T06:51:31;16.90;1.00
11142;DHT22;5625;50.122;19.864;2022-09-03T06:54:00;17.00;1.00
11142;DHT22;5625;50.122;19.864;2022-09-03T06:56:29;17.00;1.00
11142;DHT22;5625;50.122;19.864;2022-09-03T06:59:07;17.00;1.00
11142;DHT22;5625;50.122;19.864;2022-09-03T07:01:36;17.00;1.00
11142;DHT22;5625;50.122;19.864;2022-09-03T07:04:10;17.00;1.00
11142;DHT22;5625;50.122;19.864;2022-09-03T07:06:39;17.20;1.00
11142;DHT22;5625;50.122;19.864;2022-09-03T07:09:10;17.10;1.00
11142;DHT22;5625;50.122;19.864;2022-09-03T07:11:39;17.20;1.00
11142;DHT22;5625;50.122;19.864;2022-09-03T07:14:18;17.30;1.00
11142;DHT22;5625;50.122;19.864;2022-09-03T07:16:48;17.30;1.00
11142;DHT22;5625;50.122;19.864;2022-09-03T07:19:16;17.40;1.00
11142;DHT22;5625;50.122;19.864;2022-09-03T07:21:45;17.30;1.00
11142;DHT22;5625;50.122;19.864;2022-09-03T07:24:17;17.20;1.00
11142;DHT22;5625;50.122;19.864;2022-09-03T07:26:45;17.30;1.00
11142;DHT22;5625;50.122;19.864;2022-09-03T07:29:16;17.30;1.00
11142;DHT22;5625;50.122;19.864;2022-09-03T07:31:48;17.20;1.00
11142;DHT22;5625;50.122;19.864;2022-09-03T07:34:19;17.20;1.00
11142;DHT22;5625;50.122;19.864;2022-09-03T07:36:51;17.20;1.00
11142;DHT22;5625;50.122;19.864;2022-09-03T07:39:19;17.20;1.00
11142;DHT22;5625;50.122;19.864;2022-09-03T07:41:48;17.30;1.00
11142;DHT22;5625;50.122;19.864;2022-09-03T07:44:18;17.30;1.00
11142;DHT22;5625;50.122;19.864;2022-09-03T07:46:46;17.30;1.00
11142;DHT22;5625;50.122;19.864;2022-09-03T07:49:16;17.30;1.00
11142;DHT22;5625;50.122;19.864;2022-09-03T07:51:45;17.30;1.00
11142;DHT22;5625;50.122;19.864;2022-09-03T07:54:16;17.40;1.00
11142;DHT22;5625;50.122;19.864;2022-09-03T07:56:46;17.50;1.00
11142;DHT22;5625;50.122;19.864;2022-09-03T07:59:14;17.40;1.00
11142;DHT22;5625;50.122;19.864;2022-09-03T08:01:45;17.50;1.00
11142;DHT22;5625;50.122;19.864;2022-09-03T08:04:13;17.60;1.00
11142;DHT22;5625;50.122;19.864;2022-09-03T08:06:41;17.60;1.00
11142;DHT22;5625;50.122;19.864;2022-09-03T08:09:11;17.60;1.00
11142;DHT22;5625;50.122;19.864;2022-09-03T08:11:41;17.60;1.00
11142;DHT22;5625;50.122;19.864;2022-09-03T08:14:11;17.60;1.00
11142;DHT22;5625;50.122;19.864;2022-09-03T08:16:45;17.60;1.00
11142;DHT22;5625;50.122;19.864;2022-09-03T08:19:15;17.70;1.00
11142;DHT22;5625;50.122;19.864;2022-09-03T08:21:45;17.80;1.00
11142;DHT22;5625;50.122;19.864;2022-09-03T08:24:15;17.80;1.00
11142;DHT22;5625;50.122;19.864;2022-09-03T08:26:43;18.00;1.00
11142;DHT22;5625;50.122;19.864;2022-09-03T08:29:18;18.10;1.00
11142;DHT22;5625;50.122;19.864;2022-09-03T08:31:48;18.10;1.00
11142;DHT22;5625;50.122;19.864;2022-09-03T08:34:16;18.10;1.00
11142;DHT22;5625;50.122;19.864;2022-09-03T08:36:44;18.20;1.00
11142;DHT22;5625;50.122;19.864;2022-09-03T08:39:13;18.30;1.00
11142;DHT22;5625;50.122;19.864;2022-09-03T08:42:03;18.40;1.00
11142;DHT22;5625;50.122;19.864;2022-09-03T08:44:39;18.20;1.00
11142;DHT22;5625;50.122;19.864;2022-09-03T08:47:14;18.30;1.00
11142;DHT22;5625;50.122;19.864;2022-09-03T08:49:47;18.20;1.00
11142;DHT22;5625;50.122;19.864;2022-09-03T08:52:24;18.20;1.00
11142;DHT22;5625;50.122;19.864;2022-09-03T08:54:58;18.20;1.00
11142;DHT22;5625;50.122;19.864;2022-09-03T08:57:34;18.20;1.00
11142;DHT22;5625;50.122;19.864;2022-09-03T09:00:04;18.30;1.00
11142;DHT22;5625;50.122;19.864;2022-09-03T09:02:42;18.40;1.00
11142;DHT22;5625;50.122;19.864;2022-09-03T09:05:16;18.30;1.00
11142;DHT22;5625;50.122;19.864;2022-09-03T09:07:50;18.30;1.00
11142;DHT22;5625;50.122;19.864;2022-09-03T09:10:25;18.30;1.00
11142;DHT22;5625;50.122;19.864;2022-09-03T09:13:04;18.30;1.00
11142;DHT22;5625;50.122;19.864;2022-09-03T09:15:41;18.20;1.00
11142;DHT22;5625;50.122;19.864;2022-09-03T09:18:22;18.30;1.00
11142;DHT22;5625;50.122;19.864;2022-09-03T09:21:09;18.40;1.00
11142;DHT22;5625;50.122;19.864;2022-09-03T09:23:47;18.40;1.00
11142;DHT22;5625;50.122;19.864;2022-09-03T09:26:17;18.30;1.00
11142;DHT22;5625;50.122;19.864;2022-09-03T09:28:47;18.20;1.00
11142;DHT22;5625;50.122;19.864;2022-09-03T09:31:21;18.10;1.00
11142;DHT22;5625;50.122;19.864;2022-09-03T09:33:51;18.10;1.00
11142;DHT22;5625;50.122;19.864;2022-09-03T09:36:21;18.20;1.00
11142;DHT22;5625;50.122;19.864;2022-09-03T09:38:49;18.30;1.00
11142;DHT22;5625;50.122;19.864;2022-09-03T09:41:20;18.10;99.90
11142;DHT22;5625;50.122;19.864;2022-09-03T09:43:59;18.10;99.90
11142;DHT22;5625;50.122;19.864;2022-09-03T09:46:34;18.10;1.00
11142;DHT22;5625;50.122;19.864;2022-09-03T09:49:17;18.00;1.00
11142;DHT22;5625;50.122;19.864;2022-09-03T09:52:00;18.10;1.00
11142;DHT22;5625;50.122;19.864;2022-09-03T09:54:29;18.00;1.00
11142;DHT22;5625;50.122;19.864;2022-09-03T09:57:01;18.10;1.00
11142;DHT22;5625;50.122;19.864;2022-09-03T09:59:32;18.00;1.00
11142;DHT22;5625;50.122;19.864;2022-09-03T10:02:08;18.10;1.00
11142;DHT22;5625;50.122;19.864;2022-09-03T10:04:41;18.10;1.00
11142;DHT22;5625;50.122;19.864;2022-09-03T10:07:23;18.20;1.00
11142;DHT22;5625;50.122;19.864;2022-09-03T10:09:58;18.20;1.00
11142;DHT22;5625;50.122;19.864;2022-09-03T10:12:32;18.30;1.00
11142;DHT22;5625;50.122;19.864;2022-09-03T10:15:10;18.30;1.00
11142;DHT22;5625;50.122;19.864;2022-09-03T10:17:47;18.20;1.00
11142;DHT22;5625;50.122;19.864;2022-09-03T10:20:23;18.10;1.00
11142;DHT22;5625;50.122;19.864;2022-09-03T10:23:02;18.20;1.00
11142;DHT22;5625;50.122;19.864;2022-09-03T10:25:45;18.40;1.00
11142;DHT22;5625;50.122;19.864;2022-09-03T10:28:16;18.40;1.00
11142;DHT22;5625;50.122;19.864;2022-09-03T10:33:58;18.50;1.00
11142;DHT22;5625;50.122;19.864;2022-09-03T10:36:33;18.60;99.90
11142;DHT22;5625;50.122;19.864;2022-09-03T10:39:07;18.60;99.90
11142;DHT22;5625;50.122;19.864;2022-09-03T10:41:46;18.50;99.90
11142;DHT22;5625;50.122;19.864;2022-09-03T10:44:29;18.50;99.90
11142;DHT22;5625;50.122;19.864;2022-09-03T10:47:12;18.50;1.00
11142;DHT22;5625;50.122;19.864;2022-09-03T10:49:53;18.50;1.00
11142;DHT22;5625;50.122;19.864;2022-09-03T10:52:31;18.60;1.00
11142;DHT22;5625;50.122;19.864;2022-09-03T10:55:17;18.80;99.90
11142;DHT22;5625;50.122;19.864;2022-09-03T10:57:53;18.80;99.90
11142;DHT22;5625;50.122;19.864;2022-09-03T11:00:23;18.90;99.90
11142;DHT22;5625;50.122;19.864;2022-09-03T11:03:17;18.90;99.90
11142;DHT22;5625;50.122;19.864;2022-09-03T11:05:58;18.90;99.90
11142;DHT22;5625;50.122;19.864;2022-09-03T11:08:38;18.90;99.90
11142;DHT22;5625;50.122;19.864;2022-09-03T11:11:11;19.10;99.90
11142;DHT22;5625;50.122;19.864;2022-09-03T11:13:46;19.20;99.90
11142;DHT22;5625;50.122;19.864;2022-09-03T11:16:17;19.20;99.90
11142;DHT22;5625;50.122;19.864;2022-09-03T11:18:50;19.20;99.90
11142;DHT22;5625;50.122;19.864;2022-09-03T11:21:21;19.20;99.90
11142;DHT22;5625;50.122;19.864;2022-09-03T11:23:57;19.20;99.90
11142;DHT22;5625;50.122;19.864;2022-09-03T11:26:30;19.20;99.90
11142;DHT22;5625;50.122;19.864;2022-09-03T11:29:05;19.20;99.90
11142;DHT22;5625;50.122;19.864;2022-09-03T11:31:45;19.10;99.90
11142;DHT22;5625;50.122;19.864;2022-09-03T11:34:30;19.10;99.90
11142;DHT22;5625;50.122;19.864;2022-09-03T11:37:14;19.10;99.90
11142;DHT22;5625;50.122;19.864;2022-09-03T11:39:53;19.10;99.90
11142;DHT22;5625;50.122;19.864;2022-09-03T11:42:28;19.10;99.90
11142;DHT22;5625;50.122;19.864;2022-09-03T11:45:12;19.20;99.90
11142;DHT22;5625;50.122;19.864;2022-09-03T11:47:43;19.30;99.90
11142;DHT22;5625;50.122;19.864;2022-09-03T11:50:19;19.30;99.90
11142;DHT22;5625;50.122;19.864;2022-09-03T11:52:48;19.50;99.90
11142;DHT22;5625;50.122;19.864;2022-09-03T11:55:29;19.70;99.90
11142;DHT22;5625;50.122;19.864;2022-09-03T11:58:18;19.80;99.90
11142;DHT22;5625;50.122;19.864;2022-09-03T12:00:49;19.80;99.90
11142;DHT22;5625;50.122;19.864;2022-09-03T12:03:23;19.70;99.90
11142;DHT22;5625;50.122;19.864;2022-09-03T12:06:06;19.60;99.90
11142;DHT22;5625;50.122;19.864;2022-09-03T12:09:18;19.50;99.90
11142;DHT22;5625;50.122;19.864;2022-09-03T12:11:59;19.50;99.90
11142;DHT22;5625;50.122;19.864;2022-09-03T12:14:35;19.40;99.90
11142;DHT22;5625;50.122;19.864;2022-09-03T12:17:16;19.30;99.90
11142;DHT22;5625;50.122;19.864;2022-09-03T12:19:50;19.30;99.90
11142;DHT22;5625;50.122;19.864;2022-09-03T12:22:23;19.30;99.90
11142;DHT22;5625;50.122;19.864;2022-09-03T12:24:51;19.20;99.90
11142;DHT22;5625;50.122;19.864;2022-09-03T12:27:22;19.30;99.90
11142;DHT22;5625;50.122;19.864;2022-09-03T12:29:53;19.20;99.90
11142;DHT22;5625;50.122;19.864;2022-09-03T12:32:26;19.10;99.90
11142;DHT22;5625;50.122;19.864;2022-09-03T12:35:08;19.20;99.90
11142;DHT22;5625;50.122;19.864;2022-09-03T12:37:36;19.30;99.90
11142;DHT22;5625;50.122;19.864;2022-09-03T12:40:27;19.30;99.90
11142;DHT22;5625;50.122;19.864;2022-09-03T12:43:11;19.40;99.90
11142;DHT22;5625;50.122;19.864;2022-09-03T12:46:02;19.40;99.90
11142;DHT22;5625;50.122;19.864;2022-09-03T12:48:38;19.60;99.90
11142;DHT22;5625;50.122;19.864;2022-09-03T12:51:36;19.90;99.90
11142;DHT22;5625;50.122;19.864;2022-09-03T12:54:14;20.00;99.90
11142;DHT22;5625;50.122;19.864;2022-09-03T12:56:44;20.10;99.90
11142;DHT22;5625;50.122;19.864;2022-09-03T12:59:18;20.30;99.90
11142;DHT22;5625;50.122;19.864;2022-09-03T13:01:49;20.20;99.90
11142;DHT22;5625;50.122;19.864;2022-09-03T13:04:23;20.20;99.90
11142;DHT22;5625;50.122;19.864;2022-09-03T13:06:59;20.10;99.90
11142;DHT22;5625;50.122;19.864;2022-09-03T13:09:32;20.10;99.90
11142;DHT22;5625;50.122;19.864;2022-09-03T13:12:03;20.40;99.90
11142;DHT22;5625;50.122;19.864;2022-09-03T13:14:43;20.40;99.90
11142;DHT22;5625;50.122;19.864;2022-09-03T13:20:28;20.70;99.90
11142;DHT22;5625;50.122;19.864;2022-09-03T13:23:13;20.60;99.90
11142;DHT22;5625;50.122;19.864;2022-09-03T13:25:52;20.60;99.90
11142;DHT22;5625;50.122;19.864;2022-09-03T13:28:39;20.50;99.90
11142;DHT22;5625;50.122;19.864;2022-09-03T13:31:25;20.40;99.90
11142;DHT22;5625;50.122;19.864;2022-09-03T13:34:00;20.40;99.90
11142;DHT22;5625;50.122;19.864;2022-09-03T13:36:34;20.50;99.90
11142;DHT22;5625;50.122;19.864;2022-09-03T13:39:09;20.60;99.90
11142;DHT22;5625;50.122;19.864;2022-09-03T13:41:47;20.70;99.90
11142;DHT22;5625;50.122;19.864;2022-09-03T13:44:20;20.60;99.90
11142;DHT22;5625;50.122;19.864;2022-09-03T13:46:55;20.60;99.90
11142;DHT22;5625;50.122;19.864;2022-09-03T13:49:32;20.80;99.90
11142;DHT22;5625;50.122;19.864;2022-09-03T13:52:25;20.70;99.90
11142;DHT22;5625;50.122;19.864;2022-09-03T13:55:00;20.70;99.90
11142;DHT22;5625;50.122;19.864;2022-09-03T13:57:33;20.60;99.90
11142;DHT22;5625;50.122;19.864;2022-09-03T14:00:06;20.50;99.90
11142;DHT22;5625;50.122;19.864;2022-09-03T14:02:48;20.50;99.90
11142;DHT22;5625;50.122;19.864;2022-09-03T14:05:29;20.50;99.90
11142;DHT22;5625;50.122;19.864;2022-09-03T14:08:04;20.50;99.90
11142;DHT22;5625;50.122;19.864;2022-09-03T14:10:51;20.50;99.90
11142;DHT22;5625;50.122;19.864;2022-09-03T14:13:27;20.40;99.90
11142;DHT22;5625;50.122;19.864;2022-09-03T14:16:03;20.20;99.90
11142;DHT22;5625;50.122;19.864;2022-09-03T14:18:40;20.30;99.90
11142;DHT22;5625;50.122;19.864;2022-09-03T14:21:15;20.30;99.90
11142;DHT22;5625;50.122;19.864;2022-09-03T14:23:50;20.20;99.90
11142;DHT22;5625;50.122;19.864;2022-09-03T14:26:26;20.20;99.90
11142;DHT22;5625;50.122;19.864;2022-09-03T14:29:14;20.10;99.90
11142;DHT22;5625;50.122;19.864;2022-09-03T14:32:07;20.00;99.90
11142;DHT22;5625;50.122;19.864;2022-09-03T14:34:51;20.00;99.90
11142;DHT22;5625;50.122;19.864;2022-09-03T14:37:36;19.90;99.90
11142;DHT22;5625;50.122;19.864;2022-09-03T14:40:13;19.90;99.90
11142;DHT22;5625;50.122;19.864;2022-09-03T14:43:03;19.80;99.90
11142;DHT22;5625;50.122;19.864;2022-09-03T14:45:51;19.70;99.90
11142;DHT22;5625;50.122;19.864;2022-09-03T14:48:45;19.70;99.90
11142;DHT22;5625;50.122;19.864;2022-09-03T14:51:34;19.70;99.90
11142;DHT22;5625;50.122;19.864;2022-09-03T14:54:40;19.80;99.90
11142;DHT22;5625;50.122;19.864;2022-09-03T14:57:27;19.60;99.90
11142;DHT22;5625;50.122;19.864;2022-09-03T15:00:06;19.60;99.90
11142;DHT22;5625;50.122;19.864;2022-09-03T15:03:11;19.60;99.90
11142;DHT22;5625;50.122;19.864;2022-09-03T15:05:53;19.60;99.90
11142;DHT22;5625;50.122;19.864;2022-09-03T15:08:38;19.60;99.90
11142;DHT22;5625;50.122;19.864;2022-09-03T15:11:17;19.50;99.90
11142;DHT22;5625;50.122;19.864;2022-09-03T15:13:51;19.50;99.90
11142;DHT22;5625;50.122;19.864;2022-09-03T15:16:30;19.40;99.90
11142;DHT22;5625;50.122;19.864;2022-09-03T15:19:09;19.50;99.90
11142;DHT22;5625;50.122;19.864;2022-09-03T15:21:54;19.50;99.90
11142;DHT22;5625;50.122;19.864;2022-09-03T15:24:35;19.50;99.90
11142;DHT22;5625;50.122;19.864;2022-09-03T15:27:18;19.50;99.90
11142;DHT22;5625;50.122;19.864;2022-09-03T15:29:51;19.60;99.90
11142;DHT22;5625;50.122;19.864;2022-09-03T15:32:36;19.60;99.90
11142;DHT22;5625;50.122;19.864;2022-09-03T15:35:07;19.60;99.90
11142;DHT22;5625;50.122;19.864;2022-09-03T15:37:42;19.50;99.90
11142;DHT22;5625;50.122;19.864;2022-09-03T15:40:24;19.50;99.90
11142;DHT22;5625;50.122;19.864;2022-09-03T15:42:59;19.50;99.90
11142;DHT22;5625;50.122;19.864;2022-09-03T15:45:36;19.50;99.90
11142;DHT22;5625;50.122;19.864;2022-09-03T15:48:16;19.40;99.90
11142;DHT22;5625;50.122;19.864;2022-09-03T15:50:55;19.40;99.90
11142;DHT22;5625;50.122;19.864;2022-09-03T15:53:33;19.40;99.90
11142;DHT22;5625;50.122;19.864;2022-09-03T15:56:13;19.40;99.90
11142;DHT22;5625;50.122;19.864;2022-09-03T15:58:49;19.40;99.90
11142;DHT22;5625;50.122;19.864;2022-09-03T16:01:25;19.40;99.90
11142;DHT22;5625;50.122;19.864;2022-09-03T16:04:02;19.30;99.90
11142;DHT22;5625;50.122;19.864;2022-09-03T16:06:49;19.20;99.90
11142;DHT22;5625;50.122;19.864;2022-09-03T16:09:37;19.10;99.90
11142;DHT22;5625;50.122;19.864;2022-09-03T16:12:23;19.10;99.90
11142;DHT22;5625;50.122;19.864;2022-09-03T16:15:03;19.00;99.90
11142;DHT22;5625;50.122;19.864;2022-09-03T16:17:37;19.00;99.90
11142;DHT22;5625;50.122;19.864;2022-09-03T16:20:15;19.10;99.90
11142;DHT22;5625;50.122;19.864;2022-09-03T16:22:50;19.10;99.90
11142;DHT22;5625;50.122;19.864;2022-09-03T16:25:23;19.00;99.90
11142;DHT22;5625;50.122;19.864;2022-09-03T16:28:01;19.00;99.90
11142;DHT22;5625;50.122;19.864;2022-09-03T16:30:51;19.00;99.90
11142;DHT22;5625;50.122;19.864;2022-09-03T16:33:28;19.00;99.90